createdAt,value
2019-01-15T00:12:22.390Z,46.30
2019-01-15T00:52:35.628Z,46.60
2019-01-15T01:05:58.502Z,46.60
2019-01-15T01:19:21.325Z,46.70
2019-01-15T01:32:44.006Z,46.80
2019-01-15T01:46:06.859Z,46.90
2019-01-15T01:59:29.688Z,47.00
2019-01-15T02:12:52.494Z,47.20
2019-01-15T02:26:15.422Z,47.20
2019-01-15T02:39:38.108Z,47.20
2019-01-15T02:53:00.920Z,47.30
2019-01-15T03:06:23.746Z,47.40
2019-01-15T03:19:46.553Z,47.40
2019-01-15T03:33:09.367Z,47.50
2019-01-15T03:46:32.294Z,47.50
2019-01-15T03:59:55.001Z,47.50
2019-01-15T04:13:17.825Z,47.40
2019-01-15T04:26:40.767Z,47.60
2019-01-15T04:40:03.450Z,47.50
2019-01-15T04:53:26.382Z,47.60
2019-01-15T05:06:49.178Z,47.60
2019-01-15T05:20:12.025Z,47.70
2019-01-15T05:33:34.729Z,47.60
2019-01-15T05:46:57.640Z,47.70
2019-01-15T06:00:20.495Z,47.80
2019-01-15T06:13:43.291Z,47.90
2019-01-15T06:27:06.679Z,48.00
2019-01-15T06:53:30.531Z,47.00
2019-01-15T07:06:37.692Z,47.60
2019-01-15T07:19:44.868Z,47.70
2019-01-15T07:32:52.087Z,47.80
2019-01-15T07:45:59.370Z,48.10
2019-01-15T07:59:06.534Z,47.80
2019-01-15T08:12:30.208Z,47.50
2019-01-15T08:25:53.060Z,47.70
2019-01-15T08:39:15.826Z,48.30
2019-01-15T08:52:38.660Z,48.70
2019-01-15T09:06:01.486Z,48.60
2019-01-15T09:19:24.286Z,44.30
2019-01-15T09:32:47.088Z,42.00
2019-01-15T09:46:10.026Z,43.40
2019-01-15T09:59:32.831Z,44.60
2019-01-15T10:12:56.184Z,45.10
2019-01-15T10:26:18.378Z,45.50
2019-01-15T10:39:41.187Z,45.80
2019-01-15T10:53:04.105Z,46.00
2019-01-15T11:06:26.816Z,46.30
2019-01-15T11:19:49.625Z,46.30
2019-01-15T11:33:12.566Z,46.40
2019-01-15T11:46:35.846Z,46.50
2019-01-15T11:59:58.088Z,46.00
2019-01-15T12:13:21.027Z,46.60
2019-01-15T12:26:43.719Z,46.60
2019-01-15T12:53:08.167Z,47.00
2019-01-15T13:06:15.483Z,47.10
2019-01-15T13:19:22.675Z,47.30
2019-01-15T13:32:29.847Z,47.30
2019-01-15T13:45:41.548Z,47.50
2019-01-15T13:58:44.249Z,46.90
2019-01-15T14:12:07.998Z,47.50
2019-01-15T14:25:30.734Z,48.10
2019-01-15T14:38:53.655Z,47.80
2019-01-15T14:52:16.490Z,47.90
2019-01-15T15:18:40.873Z,47.90
2019-01-15T15:31:48.080Z,48.00
2019-01-15T15:44:55.352Z,47.90
2019-01-15T15:58:02.567Z,47.90
2019-01-15T16:11:11.004Z,47.90
2019-01-15T16:24:17.115Z,47.90
2019-01-15T16:37:40.635Z,47.80
2019-01-15T16:51:03.430Z,47.80
2019-01-15T17:04:26.338Z,47.80
2019-01-15T17:17:49.068Z,47.80
2019-01-15T17:44:13.566Z,48.00
2019-01-15T17:57:20.726Z,48.10
2019-01-15T18:10:28.057Z,48.00
2019-01-15T18:23:35.525Z,48.80
2019-01-15T18:49:45.650Z,47.70
2019-01-15T19:02:52.937Z,47.50
2019-01-15T19:16:00.215Z,47.60
2019-01-15T19:29:07.418Z,47.60
2019-01-15T19:42:14.987Z,47.70
2019-01-15T19:55:38.989Z,47.80
2019-01-15T20:09:01.789Z,47.90
2019-01-15T20:22:24.713Z,48.00
2019-01-15T20:35:47.465Z,48.00
2019-01-15T20:49:10.257Z,48.10
2019-01-15T21:02:33.069Z,48.00
2019-01-15T21:15:55.915Z,48.10
2019-01-15T21:29:18.814Z,48.00
2019-01-15T21:42:41.582Z,48.00
2019-01-15T21:56:04.382Z,48.10
2019-01-15T22:09:27.191Z,48.10
2019-01-15T22:22:50.001Z,48.20
2019-01-15T22:36:12.812Z,48.20
2019-01-15T22:49:35.704Z,48.20
2019-01-15T23:02:58.472Z,48.20
2019-01-15T23:16:21.255Z,48.30
2019-01-15T23:29:44.063Z,48.20
2019-01-15T23:43:06.906Z,48.30
2019-01-15T23:56:29.717Z,48.40
